Time;durP1;ratioP1;P1;durP2;ratioP2;P2;SDS_P1;SDS_P2;PMS_P1;PMS_P2;Temp;Humidity;BMP_temperature;BMP_pressure;BME280_temperature;BME280_humidity;BME280_pressure;Samples;Min_cycle;Max_cycle;Signal;HPM_P1;HPM_P2
2021/03/10 00:00:24;;;;;;;4.43;2.33;;;20.80;41.20;;;;;;5081503;28;20024;-39
2021/03/10 00:02:50;;;;;;;2.83;2.00;;;20.80;41.20;;;;;;5077043;28;20052;-39
2021/03/10 00:05:16;;;;;;;2.45;1.70;;;20.70;41.20;;;;;;5082568;28;20489;-39
2021/03/10 00:07:41;;;;;;;3.15;1.67;;;20.70;41.20;;;;;;5080297;28;20032;-47
2021/03/10 00:10:09;;;;;;;2.47;1.52;;;20.70;41.20;;;;;;5083669;28;20349;-39
2021/03/10 00:12:35;;;;;;;3.17;1.73;;;20.70;41.20;;;;;;5078942;28;20041;-40
2021/03/10 00:15:01;;;;;;;2.90;2.30;;;20.70;41.20;;;;;;5081363;28;20095;-38
2021/03/10 00:17:27;;;;;;;2.38;1.70;;;20.70;41.10;;;;;;5083906;28;20074;-38
2021/03/10 00:19:53;;;;;;;2.75;1.95;;;20.70;41.90;;;;;;5080923;28;20028;-39
2021/03/10 00:22:19;;;;;;;2.65;1.80;;;20.70;41.20;;;;;;5081104;28;20095;-38
2021/03/10 00:24:44;;;;;;;2.22;1.55;;;20.70;41.10;;;;;;5079520;28;20033;-45
2021/03/10 00:27:23;;;;;;;5.03;2.00;;;20.70;41.10;;;;;;5081970;28;20085;-38
2021/03/10 00:29:50;;;;;;;4.80;1.90;;;20.70;41.10;;;;;;5082964;28;20508;-38
2021/03/10 00:32:15;;;;;;;3.97;1.85;;;20.70;41.10;;;;;;5084826;28;20476;-39
2021/03/10 00:34:41;;;;;;;2.25;1.77;;;20.70;41.10;;;;;;5081257;28;20029;-39
2021/03/10 00:37:06;;;;;;;2.30;1.65;;;20.60;41.10;;;;;;5081790;28;20043;-44
2021/03/10 00:39:32;;;;;;;2.60;1.60;;;20.70;41.10;;;;;;5084222;28;20029;-39
2021/03/10 00:41:58;;;;;;;2.35;1.50;;;20.70;41.10;;;;;;5079850;28;20576;-39
2021/03/10 00:44:23;;;;;;;2.92;2.42;;;20.60;41.00;;;;;;5083273;28;20020;-38
2021/03/10 00:46:49;;;;;;;3.83;2.05;;;20.70;41.10;;;;;;5081600;28;20028;-39
2021/03/10 00:49:14;;;;;;;2.22;1.85;;;20.70;41.10;;;;;;5083260;28;20028;-42
2021/03/10 00:51:40;;;;;;;3.13;1.90;;;20.70;41.10;;;;;;5083336;28;20028;-38
2021/03/10 00:54:06;;;;;;;2.08;1.55;;;20.70;41.10;;;;;;5082094;28;20031;-39
2021/03/10 00:56:31;;;;;;;2.78;1.75;;;20.70;41.10;;;;;;5080143;28;20095;-39
2021/03/10 00:58:57;;;;;;;4.47;3.00;;;20.60;41.10;;;;;;5086216;28;20038;-38
2021/03/10 01:01:22;;;;;;;2.85;1.83;;;20.60;41.10;;;;;;5084292;28;20518;-38
2021/03/10 01:03:48;;;;;;;2.33;1.73;;;20.60;41.10;;;;;;5079752;28;20024;-39
2021/03/10 01:06:14;;;;;;;3.35;1.98;;;20.60;41.10;;;;;;5085074;28;20119;-40
2021/03/10 01:08:39;;;;;;;2.85;1.90;;;20.60;41.10;;;;;;5082294;28;20031;-39
2021/03/10 01:11:05;;;;;;;3.25;2.05;;;20.60;41.10;;;;;;5081096;28;20024;-42
2021/03/10 01:13:31;;;;;;;4.68;2.42;;;20.60;41.10;;;;;;5081893;28;20028;-38
2021/03/10 01:15:56;;;;;;;2.60;1.92;;;20.60;41.10;;;;;;5084912;28;20028;-39
2021/03/10 01:18:22;;;;;;;2.97;2.25;;;20.60;41.20;;;;;;5082500;28;20388;-38
2021/03/10 01:20:48;;;;;;;2.88;1.85;;;20.60;41.10;;;;;;5083690;28;20035;-39
2021/03/10 01:23:13;;;;;;;3.25;2.17;;;20.60;41.10;;;;;;5084294;28;20032;-39
2021/03/10 01:25:39;;;;;;;4.05;2.17;;;20.60;41.10;;;;;;5080312;28;20028;-39
2021/03/10 01:28:05;;;;;;;3.83;2.22;;;20.60;41.10;;;;;;5082589;28;20058;-41
2021/03/10 01:30:31;;;;;;;3.33;2.38;;;20.60;41.10;;;;;;5081580;28;20041;-38
2021/03/10 01:32:57;;;;;;;2.63;2.00;;;20.60;41.10;;;;;;5083334;28;20028;-38
2021/03/10 01:35:23;;;;;;;3.70;2.28;;;20.60;41.10;;;;;;5083470;28;20099;-38
2021/03/10 01:37:49;;;;;;;3.85;2.30;;;20.60;41.10;;;;;;5084907;28;20048;-38
2021/03/10 01:40:17;;;;;;;3.45;2.10;;;20.60;41.10;;;;;;5081706;28;20036;-41
2021/03/10 01:42:43;;;;;;;3.83;2.33;;;20.60;41.10;;;;;;5082137;28;20036;-45
2021/03/10 01:45:10;;;;;;;3.38;2.00;;;20.60;41.20;;;;;;5080281;28;20028;-38
2021/03/10 01:47:39;;;;;;;2.83;2.03;;;20.60;41.10;;;;;;5063644;28;20380;-45
2021/03/10 01:50:05;;;;;;;3.50;2.00;;;20.60;41.70;;;;;;5076541;28;20112;-41
2021/03/10 01:52:31;;;;;;;2.95;2.28;;;20.60;41.10;;;;;;5082322;28;20035;-38
2021/03/10 01:54:57;;;;;;;3.63;2.08;;;20.60;41.10;;;;;;5082025;28;20032;-39
2021/03/10 01:57:23;;;;;;;4.00;2.20;;;20.60;41.20;;;;;;5081830;28;20097;-39
2021/03/10 01:59:49;;;;;;;2.90;2.20;;;20.60;41.10;;;;;;5079696;28;20032;-38
2021/03/10 02:02:14;;;;;;;2.53;1.95;;;20.60;41.20;;;;;;5082512;28;20453;-42
2021/03/10 02:04:40;;;;;;;2.60;2.08;;;20.60;41.20;;;;;;5080645;28;20115;-39
2021/03/10 02:07:23;;;;;;;2.63;2.00;;;20.60;41.10;;;;;;5086596;28;20023;-40
2021/03/10 02:09:57;;;;;;;;;;;20.60;41.10;;;;;;5075525;28;20024;-39
2021/03/10 02:12:41;;;;;;;3.38;2.00;;;20.60;41.20;;;;;;5083654;28;19915;-38
2021/03/10 02:15:27;;;;;;;4.07;2.45;;;20.60;41.20;;;;;;5090832;28;20036;-38
2021/03/10 02:17:57;;;;;;;3.22;2.55;;;20.60;41.20;;;;;;5089801;28;20032;-39
2021/03/10 02:20:55;;;;;;;2.58;2.10;;;20.50;41.10;;;;;;5091804;28;20032;-38
2021/03/10 02:24:10;;;;;;;2.78;2.00;;;20.60;41.20;;;;;;5065529;28;20045;-38
2021/03/10 02:27:33;;;;;;;2.85;2.25;;;20.60;41.20;;;;;;5077846;28;20550;-39
2021/03/10 02:30:03;;;;;;;3.25;2.13;;;20.60;41.20;;;;;;5058166;28;20044;-42
2021/03/10 02:32:30;;;;;;;3.47;2.30;;;20.60;41.20;;;;;;5080078;28;20034;-39
2021/03/10 02:34:57;;;;;;;2.58;1.90;;;20.60;41.90;;;;;;5078722;28;20029;-38
2021/03/10 02:37:26;;;;;;;2.90;1.88;;;20.60;41.20;;;;;;5080995;28;20481;-38
2021/03/10 02:39:52;;;;;;;5.32;2.08;;;20.60;41.20;;;;;;5083109;28;20035;-39
2021/03/10 02:42:18;;;;;;;3.70;2.03;;;20.60;41.20;;;;;;5082918;28;20031;-38
2021/03/10 02:44:45;;;;;;;4.75;2.50;;;20.50;41.20;;;;;;5081728;28;20028;-43
2021/03/10 02:47:11;;;;;;;3.10;2.10;;;20.60;41.30;;;;;;5078713;28;20086;-38
2021/03/10 02:49:38;;;;;;;3.35;2.05;;;20.50;41.20;;;;;;5081396;28;20024;-38
2021/03/10 02:52:05;;;;;;;3.97;2.50;;;20.60;41.30;;;;;;5081273;28;20032;-38
2021/03/10 02:54:32;;;;;;;3.55;2.40;;;20.50;41.20;;;;;;5081154;28;20032;-40
2021/03/10 02:56:58;;;;;;;3.55;2.50;;;20.60;41.30;;;;;;5080718;28;20060;-38
2021/03/10 02:59:26;;;;;;;4.18;2.05;;;20.50;41.30;;;;;;5079460;28;20106;-39
2021/03/10 03:01:54;;;;;;;3.38;2.55;;;20.60;41.40;;;;;;5082472;28;20020;-40
2021/03/10 03:04:20;;;;;;;3.22;2.67;;;20.60;41.40;;;;;;5081806;28;20021;-39
2021/03/10 03:06:45;;;;;;;2.90;2.30;;;20.60;41.40;;;;;;5081115;28;20400;-45
2021/03/10 03:09:13;;;;;;;3.20;2.67;;;20.60;41.40;;;;;;5081780;28;20032;-40
2021/03/10 03:11:39;;;;;;;3.55;2.53;;;20.60;41.40;;;;;;5084034;28;20038;-41
2021/03/10 03:14:06;;;;;;;3.55;2.75;;;20.50;41.30;;;;;;5079288;28;20405;-38
2021/03/10 03:16:32;;;;;;;2.40;2.13;;;20.50;41.30;;;;;;5078963;28;20043;-40
2021/03/10 03:18:58;;;;;;;2.58;2.15;;;20.50;41.30;;;;;;5078341;28;20419;-39
2021/03/10 03:21:23;;;;;;;4.47;2.33;;;20.50;41.30;;;;;;5081713;28;20377;-38
2021/03/10 03:23:51;;;;;;;3.60;2.45;;;20.60;41.40;;;;;;5080802;28;20107;-41
2021/03/10 03:26:17;;;;;;;4.72;2.80;;;20.50;41.30;;;;;;5080899;28;20075;-39
2021/03/10 03:28:44;;;;;;;4.00;2.47;;;20.60;41.40;;;;;;5083780;28;20024;-45
2021/03/10 03:31:12;;;;;;;3.17;2.45;;;20.60;41.40;;;;;;5082659;28;20149;-39
2021/03/10 03:33:40;;;;;;;5.95;2.13;;;20.60;41.30;;;;;;5081410;28;20104;-42
2021/03/10 03:36:08;;;;;;;3.33;2.42;;;20.60;41.30;;;;;;5079662;28;20024;-39
2021/03/10 03:38:34;;;;;;;4.57;2.80;;;20.60;41.30;;;;;;5079071;28;20079;-39
2021/03/10 03:41:00;;;;;;;4.35;2.60;;;20.60;41.30;;;;;;5082414;28;20028;-39
2021/03/10 03:43:27;;;;;;;4.38;3.15;;;20.60;41.30;;;;;;5082319;28;20103;-38
2021/03/10 03:45:54;;;;;;;3.13;2.42;;;20.60;41.30;;;;;;5082012;28;20028;-38
2021/03/10 03:48:20;;;;;;;2.72;2.13;;;20.60;41.30;;;;;;5083605;28;20121;-40
2021/03/10 03:50:46;;;;;;;2.92;2.15;;;20.50;41.30;;;;;;5081621;28;20033;-46
2021/03/10 03:53:13;;;;;;;3.45;2.53;;;20.60;41.40;;;;;;5080485;28;20029;-39
2021/03/10 03:55:39;;;;;;;4.32;2.67;;;20.50;41.30;;;;;;5079756;28;20055;-39
2021/03/10 03:58:05;;;;;;;3.92;2.60;;;20.60;41.30;;;;;;5083628;28;20036;-38
2021/03/10 04:00:32;;;;;;;2.95;2.35;;;20.50;41.20;;;;;;5085611;28;20028;-39
2021/03/10 04:02:58;;;;;;;3.08;2.50;;;20.60;41.30;;;;;;5082821;28;20032;-39
2021/03/10 04:05:23;;;;;;;4.30;2.60;;;20.50;41.30;;;;;;5083632;28;20028;-40
2021/03/10 04:07:51;;;;;;;2.97;2.30;;;20.50;41.30;;;;;;5079820;28;20058;-42
2021/03/10 04:10:21;;;;;;;3.22;2.50;;;20.60;41.30;;;;;;5080193;28;20036;-40
2021/03/10 04:12:47;;;;;;;4.97;2.67;;;20.50;41.20;;;;;;5082258;28;20551;-42
2021/03/10 04:15:13;;;;;;;2.78;2.42;;;20.60;41.30;;;;;;5082663;28;20096;-39
2021/03/10 04:17:39;;;;;;;3.33;2.35;;;20.60;41.30;;;;;;5083577;28;20039;-41
2021/03/10 04:20:10;;;;;;;3.67;2.55;;;20.50;41.30;;;;;;5084623;28;20011;-38
2021/03/10 04:22:36;;;;;;;3.22;2.83;;;20.60;41.30;;;;;;5084063;28;20032;-39
2021/03/10 04:25:03;;;;;;;3.35;2.15;;;20.60;41.30;;;;;;5081956;28;20024;-38
2021/03/10 04:27:29;;;;;;;4.07;2.63;;;20.60;41.30;;;;;;5080163;28;20039;-43
2021/03/10 04:29:54;;;;;;;3.83;2.65;;;20.50;41.30;;;;;;5082208;28;20512;-39
2021/03/10 04:32:20;;;;;;;5.40;2.70;;;20.60;41.30;;;;;;5082828;28;20037;-39
2021/03/10 04:34:46;;;;;;;3.88;2.90;;;20.50;41.30;;;;;;5080753;28;20028;-46
2021/03/10 04:37:11;;;;;;;3.65;2.70;;;20.60;41.30;;;;;;5086780;28;20488;-39
2021/03/10 04:39:37;;;;;;;4.38;2.53;;;20.50;41.20;;;;;;5086310;28;20526;-38
2021/03/10 04:42:03;;;;;;;3.00;2.50;;;20.60;41.30;;;;;;5083441;28;20052;-38
2021/03/10 04:44:28;;;;;;;3.63;2.20;;;20.50;41.20;;;;;;5084646;28;20037;-38
2021/03/10 04:46:54;;;;;;;4.07;2.88;;;20.60;41.30;;;;;;5078745;28;20028;-38
2021/03/10 04:49:19;;;;;;;3.03;2.33;;;20.50;41.30;;;;;;5085152;28;20115;-41
2021/03/10 04:51:45;;;;;;;4.20;2.80;;;20.50;41.30;;;;;;5084663;28;20024;-46
2021/03/10 04:54:11;;;;;;;3.40;2.58;;;20.60;41.30;;;;;;5082400;28;20056;-39
2021/03/10 04:56:36;;;;;;;4.93;3.00;;;20.60;41.30;;;;;;5083922;28;20059;-39
2021/03/10 04:59:02;;;;;;;4.65;2.78;;;20.60;41.30;;;;;;5079946;28;20028;-38
2021/03/10 05:01:28;;;;;;;4.40;2.92;;;20.60;41.30;;;;;;5081764;28;20028;-38
2021/03/10 05:03:53;;;;;;;4.82;3.17;;;20.60;41.30;;;;;;5084011;28;20028;-38
2021/03/10 05:06:19;;;;;;;5.40;3.05;;;20.60;41.30;;;;;;5082092;28;20043;-41
2021/03/10 05:08:44;;;;;;;3.35;2.80;;;20.50;41.20;;;;;;5083500;28;20385;-47
2021/03/10 05:11:10;;;;;;;4.85;3.03;;;20.60;41.30;;;;;;5082153;28;20060;-39
2021/03/10 05:13:36;;;;;;;4.80;2.70;;;20.60;41.30;;;;;;5084074;28;20513;-38
2021/03/10 05:16:01;;;;;;;4.10;2.90;;;20.60;41.30;;;;;;5080668;28;20020;-39
2021/03/10 05:18:27;;;;;;;3.30;2.40;;;20.60;41.30;;;;;;5083518;28;20027;-39
2021/03/10 05:20:53;;;;;;;3.67;2.47;;;20.60;41.30;;;;;;5078082;28;20358;-38
2021/03/10 05:23:18;;;;;;;4.43;2.95;;;20.60;41.30;;;;;;5082739;28;20032;-38
2021/03/10 05:25:44;;;;;;;5.25;2.88;;;20.50;41.30;;;;;;5083227;28;20050;-46
2021/03/10 05:28:09;;;;;;;4.57;2.40;;;20.50;41.20;;;;;;5082754;28;20040;-41
2021/03/10 05:30:35;;;;;;;4.82;3.17;;;20.60;41.30;;;;;;5082567;28;20461;-39
2021/03/10 05:33:01;;;;;;;3.35;2.38;;;20.60;41.30;;;;;;5080067;28;20427;-38
2021/03/10 05:35:26;;;;;;;4.25;3.00;;;20.60;41.20;;;;;;5081150;28;20021;-39
2021/03/10 05:37:52;;;;;;;4.45;2.95;;;20.60;41.30;;;;;;5079965;28;20075;-39
2021/03/10 05:40:18;;;;;;;4.63;2.70;;;20.60;41.20;;;;;;5085141;28;20457;-39
2021/03/10 05:42:44;;;;;;;5.25;2.80;;;20.60;41.20;;;;;;5081936;28;20073;-46
2021/03/10 05:45:11;;;;;;;4.57;2.88;;;20.60;41.20;;;;;;5081918;28;20482;-39
2021/03/10 05:47:37;;;;;;;4.13;2.83;;;20.60;41.20;;;;;;5087614;28;20067;-39
2021/03/10 05:50:05;;;;;;;3.47;2.80;;;20.60;41.30;;;;;;5081673;28;20059;-38
2021/03/10 05:52:34;;;;;;;4.32;2.63;;;20.60;41.20;;;;;;5082381;28;20434;-38
2021/03/10 05:55:02;;;;;;;3.17;2.55;;;20.60;41.20;;;;;;5083783;28;20075;-39
2021/03/10 05:57:28;;;;;;;3.55;2.40;;;20.60;41.20;;;;;;5088234;28;20096;-38
2021/03/10 05:59:54;;;;;;;3.55;2.78;;;20.60;41.20;;;;;;5071771;28;20099;-38
2021/03/10 06:02:20;;;;;;;4.15;2.78;;;20.60;41.20;;;;;;5078606;28;20416;-39
2021/03/10 06:04:46;;;;;;;6.68;2.97;;;20.60;41.20;;;;;;5091521;28;20034;-45
2021/03/10 06:07:21;;;;;;;3.15;2.83;;;20.60;41.20;;;;;;5084567;28;20024;-38
2021/03/10 06:10:06;;;;;;;4.70;2.92;;;20.60;41.20;;;;;;5074666;28;20028;-45
2021/03/10 06:12:47;;;;;;;4.90;2.88;;;20.60;41.20;;;;;;5071753;28;20123;-38
2021/03/10 06:15:14;;;;;;;4.97;2.80;;;20.60;41.30;;;;;;5073118;28;20119;-38
2021/03/10 06:17:47;;;;;;;6.35;2.70;;;20.60;41.30;;;;;;5071656;28;20025;-38
2021/03/10 06:20:33;;;;;;;3.65;2.35;;;20.60;41.20;;;;;;5079955;28;20036;-38
2021/03/10 06:22:59;;;;;;;4.82;2.70;;;20.60;41.20;;;;;;5071073;28;20040;-39
2021/03/10 06:25:37;;;;;;;4.45;2.85;;;20.60;41.20;;;;;;5072026;28;20040;-38
2021/03/10 06:28:04;;;;;;;3.83;2.85;;;20.60;41.20;;;;;;5080445;28;20048;-38
2021/03/10 06:30:30;;;;;;;4.45;2.78;;;20.60;41.10;;;;;;5070908;28;20036;-39
2021/03/10 06:32:56;;;;;;;4.60;2.85;;;20.60;41.20;;;;;;5077270;28;20500;-38
2021/03/10 06:35:29;;;;;;;4.68;3.03;;;20.60;41.20;;;;;;5091307;28;20036;-39
2021/03/10 06:38:13;;;;;;;3.63;2.70;;;20.60;41.20;;;;;;5081768;28;20043;-39
2021/03/10 06:40:56;;;;;;;5.10;2.63;;;20.60;41.10;;;;;;5072001;28;20047;-39
2021/03/10 06:43:41;;;;;;;4.07;2.65;;;20.60;41.20;;;;;;5072044;28;20032;-41
2021/03/10 06:46:17;;;;;;;4.70;2.80;;;20.60;41.20;;;;;;5071664;28;20043;-39
2021/03/10 06:48:57;;;;;;;3.90;3.00;;;20.60;41.30;;;;;;5071900;28;20070;-43
2021/03/10 06:51:24;;;;;;;5.35;2.92;;;20.60;41.30;;;;;;5077622;28;20034;-38
2021/03/10 06:53:50;;;;;;;4.10;3.03;;;20.60;41.40;;;;;;5074341;28;20120;-44
2021/03/10 06:56:29;;;;;;;12.13;3.28;;;20.60;41.60;;;;;;5070157;28;20124;-43
2021/03/10 06:59:00;;;;;;;12.65;3.28;;;20.70;42.40;;;;;;5085338;28;20036;-39
2021/03/10 07:01:28;;;;;;;12.23;3.33;;;20.70;42.10;;;;;;5087173;28;20032;-39
2021/03/10 07:03:56;;;;;;;9.70;3.45;;;20.70;42.40;;;;;;5073784;28;20032;-39
2021/03/10 07:06:22;;;;;;;8.65;3.20;;;20.70;42.90;;;;;;5070826;28;20126;-43
2021/03/10 07:08:49;;;;;;;12.00;7.35;;;20.60;42.60;;;;;;5087516;28;20032;-43
2021/03/10 07:11:15;;;;;;;15.82;8.38;;;20.40;41.10;;;;;;5073118;28;20044;-39
2021/03/10 07:13:42;;;;;;;10.73;5.68;;;20.40;40.30;;;;;;5073035;28;20029;-39
2021/03/10 07:16:10;;;;;;;13.88;5.70;;;20.50;42.40;;;;;;5073535;28;20025;-39
2021/03/10 07:18:36;;;;;;;14.13;6.40;;;20.50;43.00;;;;;;5082915;28;20088;-39
2021/03/10 07:21:05;;;;;;;14.27;4.93;;;20.50;43.00;;;;;;5079940;28;20032;-39
2021/03/10 07:23:37;;;;;;;11.68;4.82;;;20.60;43.10;;;;;;5082424;28;20109;-39
2021/03/10 07:26:04;;;;;;;12.95;5.10;;;20.60;43.10;;;;;;5081231;28;20381;-39
2021/03/10 07:28:32;;;;;;;11.38;4.60;;;20.60;43.30;;;;;;5081236;28;20094;-44
2021/03/10 07:30:57;;;;;;;7.30;4.53;;;20.60;43.40;;;;;;5094078;28;20060;-39
2021/03/10 07:33:24;;;;;;;13.20;4.53;;;20.60;43.50;;;;;;5081592;28;20485;-39
2021/03/10 07:35:52;;;;;;;12.35;4.80;;;20.60;43.60;;;;;;5083253;28;20373;-47
2021/03/10 07:38:20;;;;;;;9.27;4.55;;;20.70;44.00;;;;;;5082972;28;20028;-39
2021/03/10 07:40:53;;;;;;;8.32;4.32;;;20.70;44.30;;;;;;5080421;28;20024;-39
2021/03/10 07:43:19;;;;;;;6.68;3.58;;;20.70;44.50;;;;;;5079173;28;20031;-39
2021/03/10 07:45:45;;;;;;;7.43;3.85;;;20.70;44.50;;;;;;5080744;28;20029;-39
2021/03/10 07:48:11;;;;;;;8.88;3.83;;;20.70;44.50;;;;;;5074278;28;20042;-39
2021/03/10 07:50:41;;;;;;;8.02;3.35;;;20.70;44.40;;;;;;5082327;28;20131;-44
2021/03/10 07:53:07;;;;;;;10.88;3.75;;;20.70;44.40;;;;;;5069486;28;20044;-39
2021/03/10 07:55:48;;;;;;;7.90;3.67;;;20.70;44.30;;;;;;5079416;28;20044;-39
2021/03/10 07:58:29;;;;;;;14.45;4.22;;;20.70;44.30;;;;;;5075322;28;20036;-39
2021/03/10 08:00:56;;;;;;;8.85;3.00;;;20.70;44.30;;;;;;5074282;28;20094;-39
2021/03/10 08:03:32;;;;;;;9.93;3.42;;;20.70;44.30;;;;;;5084717;28;20031;-41
2021/03/10 08:06:02;;;;;;;6.57;3.38;;;20.70;44.20;;;;;;5091450;28;20124;-39
2021/03/10 08:08:38;;;;;;;8.50;3.90;;;20.70;44.20;;;;;;5084939;28;20032;-39
2021/03/10 08:11:11;;;;;;;5.38;3.72;;;20.70;44.10;;;;;;5093036;28;20028;-39
2021/03/10 08:13:37;;;;;;;7.20;3.75;;;20.70;44.10;;;;;;5080871;28;20036;-40
2021/03/10 08:16:04;;;;;;;4.03;3.10;;;20.70;44.10;;;;;;5091301;28;20432;-39
2021/03/10 08:18:32;;;;;;;6.60;3.17;;;20.70;44.00;;;;;;5091261;28;20040;-39
2021/03/10 08:21:19;;;;;;;5.53;3.10;;;20.70;44.00;;;;;;5092381;28;20043;-39
2021/03/10 08:23:46;;;;;;;6.70;3.33;;;20.70;44.00;;;;;;5078785;28;20052;-40
2021/03/10 08:26:12;;;;;;;7.80;3.10;;;20.70;44.00;;;;;;5085025;28;20033;-40
2021/03/10 08:28:40;;;;;;;9.90;3.17;;;20.70;43.90;;;;;;5084863;28;20032;-40
2021/03/10 08:31:11;;;;;;;4.72;3.00;;;20.70;43.90;;;;;;5073860;28;20032;-39
2021/03/10 08:33:52;;;;;;;5.32;3.08;;;20.70;43.80;;;;;;5091723;28;20027;-39
2021/03/10 08:36:38;;;;;;;5.38;3.38;;;20.70;43.80;;;;;;5088264;28;20035;-39
2021/03/10 08:39:13;;;;;;;5.75;3.20;;;20.70;43.70;;;;;;5084169;28;20081;-39
2021/03/10 08:41:53;;;;;;;5.70;2.85;;;20.70;43.70;;;;;;5078036;28;20047;-39
2021/03/10 08:44:22;;;;;;;5.90;3.00;;;20.70;43.70;;;;;;5086111;28;20073;-45
2021/03/10 08:46:47;;;;;;;7.57;3.03;;;20.70;43.60;;;;;;5080810;28;20036;-39
2021/03/10 08:49:23;;;;;;;7.95;3.38;;;20.70;43.60;;;;;;5091309;28;20034;-40
2021/03/10 08:52:01;;;;;;;5.95;3.08;;;20.70;43.60;;;;;;5084054;28;20028;-39
2021/03/10 08:54:26;;;;;;;5.22;3.13;;;20.70;43.60;;;;;;5074250;28;20024;-39
2021/03/10 08:56:52;;;;;;;7.80;3.10;;;20.70;43.60;;;;;;5073237;28;20045;-48
2021/03/10 08:59:18;;;;;;;4.82;2.60;;;20.70;43.60;;;;;;5081263;28;20020;-39
2021/03/10 09:01:51;;;;;;;5.05;2.83;;;20.70;43.60;;;;;;5079357;28;20107;-38
2021/03/10 09:04:24;;;;;;;4.35;2.97;;;20.70;43.60;;;;;;5089305;28;20024;-39
2021/03/10 09:06:51;;;;;;;4.53;2.55;;;20.70;43.50;;;;;;5091002;28;20105;-48
2021/03/10 09:09:17;;;;;;;4.70;2.78;;;20.70;43.50;;;;;;5086779;28;20054;-39
2021/03/10 09:11:43;;;;;;;4.32;3.22;;;20.70;43.40;;;;;;5078175;28;20086;-39
2021/03/10 09:14:09;;;;;;;3.90;2.70;;;20.70;43.40;;;;;;5081196;28;20028;-40
2021/03/10 09:16:35;;;;;;;6.47;3.20;;;20.70;43.50;;;;;;5088278;28;20107;-39
2021/03/10 09:19:01;;;;;;;5.93;3.05;;;20.70;43.40;;;;;;5073603;28;20119;-39
2021/03/10 09:21:41;;;;;;;4.72;2.97;;;20.70;43.40;;;;;;5084721;28;20038;-40
2021/03/10 09:24:07;;;;;;;5.97;2.90;;;20.70;43.40;;;;;;5081715;28;20054;-39
2021/03/10 09:26:39;;;;;;;4.97;2.65;;;20.70;43.30;;;;;;5092572;28;20032;-39
2021/03/10 09:29:05;;;;;;;4.75;2.47;;;20.70;43.30;;;;;;5088181;28;20032;-41
2021/03/10 09:31:31;;;;;;;4.60;2.70;;;20.70;43.30;;;;;;5074282;28;20053;-39
2021/03/10 09:34:06;;;;;;;4.18;3.00;;;20.70;43.20;;;;;;5072984;28;20103;-40
2021/03/10 09:36:32;;;;;;;3.60;2.60;;;20.70;43.20;;;;;;5074282;28;20056;-39
2021/03/10 09:38:59;;;;;;;4.10;2.70;;;20.70;43.20;;;;;;5073853;28;20055;-39
2021/03/10 09:41:27;;;;;;;5.38;2.60;;;20.70;43.10;;;;;;5080834;28;20028;-39
2021/03/10 09:44:08;;;;;;;5.38;3.40;;;20.70;43.10;;;;;;5084583;28;20103;-48
2021/03/10 09:46:42;;;;;;;5.35;3.03;;;20.70;43.10;;;;;;5077481;28;20048;-39
2021/03/10 09:49:09;;;;;;;5.25;2.78;;;20.70;43.70;;;;;;5082158;28;20054;-39
2021/03/10 09:51:48;;;;;;;6.30;2.60;;;20.70;43.10;;;;;;5084696;28;20029;-39
2021/03/10 09:54:13;;;;;;;3.15;2.60;;;20.70;43.10;;;;;;5074562;28;20608;-39
2021/03/10 09:56:51;;;;;;;5.05;2.95;;;20.70;43.00;;;;;;5072375;28;20093;-43
2021/03/10 09:59:17;;;;;;;3.70;2.40;;;20.70;43.00;;;;;;5074581;28;20037;-40
2021/03/10 10:01:47;;;;;;;3.78;2.58;;;20.70;43.00;;;;;;5087971;28;20027;-39
2021/03/10 10:04:13;;;;;;;3.22;2.70;;;20.70;43.00;;;;;;5088083;28;20212;-39
2021/03/10 10:06:50;;;;;;;4.68;2.40;;;20.70;43.10;;;;;;5086708;28;20035;-39
2021/03/10 10:09:16;;;;;;;4.40;2.50;;;20.70;43.30;;;;;;5087501;28;20028;-40
2021/03/10 10:11:41;;;;;;;4.20;2.63;;;20.70;43.30;;;;;;5088154;28;20043;-40
2021/03/10 10:14:07;;;;;;;3.72;2.42;;;20.70;43.30;;;;;;5090763;28;20077;-41
2021/03/10 10:16:36;;;;;;;3.45;2.88;;;20.70;43.30;;;;;;5091399;28;20044;-45
2021/03/10 10:19:02;;;;;;;3.55;2.65;;;20.60;43.20;;;;;;5088589;28;20034;-39
2021/03/10 10:21:28;;;;;;;4.82;2.88;;;20.70;43.30;;;;;;5071816;28;20846;-39
2021/03/10 10:23:54;;;;;;;3.92;2.35;;;20.60;43.20;;;;;;5072650;28;20033;-40
2021/03/10 10:26:19;;;;;;;6.13;2.35;;;20.60;43.10;;;;;;5087459;28;20032;-39
2021/03/10 10:28:45;;;;;;;3.08;2.58;;;20.60;43.10;;;;;;5090508;28;20024;-40
2021/03/10 10:31:11;;;;;;;2.75;1.90;;;20.60;43.10;;;;;;5071513;28;20374;-40
2021/03/10 10:33:36;;;;;;;3.85;2.53;;;20.60;43.10;;;;;;5075878;28;20031;-39
2021/03/10 10:36:02;;;;;;;4.50;2.40;;;20.60;43.10;;;;;;5082428;28;20322;-40
2021/03/10 10:38:28;;;;;;;3.78;2.40;;;20.60;43.10;;;;;;5085989;28;20036;-40
2021/03/10 10:40:53;;;;;;;3.58;2.17;;;20.60;43.00;;;;;;5072941;28;20033;-46
2021/03/10 10:43:19;;;;;;;4.22;2.50;;;20.60;43.00;;;;;;5079575;28;20078;-42
2021/03/10 10:45:45;;;;;;;3.28;2.55;;;20.60;43.00;;;;;;5077822;28;20032;-39
2021/03/10 10:48:10;;;;;;;2.95;2.10;;;20.60;42.90;;;;;;5072093;28;20094;-41
2021/03/10 10:50:36;;;;;;;4.97;2.50;;;20.60;42.90;;;;;;5071565;28;20096;-43
2021/03/10 10:53:04;;;;;;;2.90;1.92;;;20.60;42.80;;;;;;5087420;28;20122;-41
2021/03/10 10:55:29;;;;;;;4.80;2.03;;;20.60;42.90;;;;;;5072960;28;20043;-40
2021/03/10 10:57:55;;;;;;;4.03;2.08;;;20.60;42.80;;;;;;5071150;28;20041;-50
2021/03/10 11:00:25;;;;;;;2.78;1.95;;;20.60;42.80;;;;;;5082402;28;20511;-40
2021/03/10 11:02:51;;;;;;;2.38;1.85;;;20.60;42.80;;;;;;5086339;28;20473;-39
2021/03/10 11:05:17;;;;;;;2.13;1.80;;;20.60;42.70;;;;;;5071324;28;20107;-39
2021/03/10 11:07:42;;;;;;;2.72;1.90;;;20.60;42.70;;;;;;5071621;28;20469;-39
2021/03/10 11:10:08;;;;;;;2.88;2.00;;;20.60;42.60;;;;;;5083799;28;20038;-38
2021/03/10 11:12:34;;;;;;;5.22;1.95;;;20.60;42.60;;;;;;5075468;28;20104;-39
2021/03/10 11:15:01;;;;;;;2.53;1.80;;;20.60;42.50;;;;;;5071966;28;20393;-43
2021/03/10 11:17:26;;;;;;;1.95;1.67;;;20.60;42.50;;;;;;5079689;28;20040;-39
2021/03/10 11:19:52;;;;;;;2.78;1.77;;;20.60;42.40;;;;;;5070456;28;20032;-39
2021/03/10 11:22:18;;;;;;;2.50;1.98;;;20.60;42.40;;;;;;5085836;28;20103;-41
2021/03/10 11:24:44;;;;;;;4.75;1.75;;;20.60;42.40;;;;;;5072275;28;20025;-39
2021/03/10 11:27:09;;;;;;;2.65;1.75;;;20.60;42.30;;;;;;5079577;28;20036;-45
2021/03/10 11:29:35;;;;;;;1.88;1.60;;;20.60;42.30;;;;;;5075497;28;20024;-39
2021/03/10 11:32:01;;;;;;;2.63;1.65;;;20.70;42.30;;;;;;5089684;28;20028;-40
2021/03/10 11:34:29;;;;;;;1.88;1.50;;;20.60;42.20;;;;;;5081850;28;20054;-39
2021/03/10 11:36:54;;;;;;;2.22;1.65;;;20.60;42.20;;;;;;5084097;28;20127;-39
2021/03/10 11:39:20;;;;;;;3.97;1.63;;;20.70;42.30;;;;;;5084515;28;20107;-40
2021/03/10 11:41:46;;;;;;;3.60;1.50;;;20.70;42.50;;;;;;5087972;28;20461;-39
2021/03/10 11:44:11;;;;;;;1.80;1.70;;;20.70;42.50;;;;;;5070396;28;20385;-39
2021/03/10 11:46:37;;;;;;;2.20;1.52;;;20.70;42.40;;;;;;5084699;28;20024;-39
2021/03/10 11:49:03;;;;;;;2.95;1.70;;;20.70;42.30;;;;;;5078183;28;20473;-39
2021/03/10 11:51:28;;;;;;;3.00;1.58;;;20.70;42.30;;;;;;5076895;28;20031;-39
2021/03/10 11:53:54;;;;;;;3.72;1.50;;;20.70;42.30;;;;;;5089248;28;20028;-39
2021/03/10 11:56:20;;;;;;;3.72;1.70;;;20.70;42.30;;;;;;5069998;28;20044;-39
2021/03/10 11:58:46;;;;;;;3.53;2.08;;;20.70;42.20;;;;;;5090847;28;20039;-41
2021/03/10 12:01:11;;;;;;;2.85;1.45;;;20.70;42.10;;;;;;5087694;28;20031;-39
2021/03/10 12:03:40;;;;;;;2.70;1.30;;;20.70;42.10;;;;;;5081497;28;20096;-40
2021/03/10 12:06:06;;;;;;;3.95;1.58;;;20.70;42.10;;;;;;5085976;28;20094;-39
2021/03/10 12:08:32;;;;;;;3.15;1.60;;;20.70;42.10;;;;;;5071228;28;20032;-40
2021/03/10 12:10:58;;;;;;;1.75;1.17;;;20.70;42.00;;;;;;5080189;28;20465;-46
2021/03/10 12:13:25;;;;;;;2.17;1.70;;;20.70;42.10;;;;;;5077079;28;20032;-46
2021/03/10 12:15:54;;;;;;;3.15;1.73;;;20.70;41.80;;;;;;5071586;28;20043;-41
2021/03/10 12:18:19;;;;;;;2.60;1.60;;;20.70;42.40;;;;;;5082836;28;20056;-40
2021/03/10 12:20:45;;;;;;;2.47;1.55;;;20.70;42.30;;;;;;5092391;28;20101;-41
2021/03/10 12:23:11;;;;;;;3.67;1.48;;;20.70;42.30;;;;;;5093275;28;20112;-39
2021/03/10 12:25:37;;;;;;;5.93;1.60;;;20.70;42.80;;;;;;5081917;28;20501;-39
2021/03/10 12:28:02;;;;;;;2.97;1.65;;;20.70;42.20;;;;;;5074745;28;20047;-39
2021/03/10 12:30:29;;;;;;;3.47;1.60;;;20.70;42.20;;;;;;5075921;28;20090;-42
2021/03/10 12:32:54;;;;;;;3.08;1.67;;;20.70;42.10;;;;;;5078507;28;20024;-39
2021/03/10 12:35:20;;;;;;;3.80;1.33;;;20.70;42.10;;;;;;5074733;28;20033;-43
2021/03/10 12:37:46;;;;;;;3.65;1.30;;;20.70;42.30;;;;;;5080104;28;20064;-40
2021/03/10 12:40:12;;;;;;;3.47;1.65;;;20.70;42.30;;;;;;5092619;28;20099;-39
2021/03/10 12:42:39;;;;;;;2.22;1.30;;;20.70;42.30;;;;;;5074135;28;20025;-45
2021/03/10 12:45:07;;;;;;;2.03;1.70;;;20.70;42.20;;;;;;5079341;28;20426;-39
2021/03/10 12:47:32;;;;;;;2.55;1.40;;;20.70;42.20;;;;;;5082971;28;20166;-40
2021/03/10 12:49:59;;;;;;;4.13;1.90;;;20.70;42.20;;;;;;5091257;28;20103;-45